sensor_id;sensor_type;location;lat;lon;timestamp;temperature;humidity
50738;DHT22;36703;48.154;17.126;2023-02-24T00:01:48;13.80;49.30
50738;DHT22;36703;48.154;17.126;2023-02-24T00:06:04;13.80;49.30
50738;DHT22;36703;48.154;17.126;2023-02-24T00:10:12;13.70;49.40
50738;DHT22;36703;48.154;17.126;2023-02-24T00:14:19;13.70;49.40
50738;DHT22;36703;48.154;17.126;2023-02-24T00:18:22;13.80;49.50
50738;DHT22;36703;48.154;17.126;2023-02-24T00:22:23;13.80;49.40
50738;DHT22;36703;48.154;17.126;2023-02-24T00:26:25;13.70;49.40
50738;DHT22;36703;48.154;17.126;2023-02-24T00:30:29;13.70;49.60
50738;DHT22;36703;48.154;17.126;2023-02-24T00:34:35;13.70;49.50
50738;DHT22;36703;48.154;17.126;2023-02-24T00:38:38;13.70;49.50
50738;DHT22;36703;48.154;17.126;2023-02-24T00:42:40;13.70;49.40
50738;DHT22;36703;48.154;17.126;2023-02-24T00:46:44;13.80;49.60
50738;DHT22;36703;48.154;17.126;2023-02-24T00:50:47;13.60;49.60
50738;DHT22;36703;48.154;17.126;2023-02-24T00:54:49;13.80;49.70
50738;DHT22;36703;48.154;17.126;2023-02-24T00:58:56;13.60;49.60
50738;DHT22;36703;48.154;17.126;2023-02-24T01:03:00;13.50;49.60
50738;DHT22;36703;48.154;17.126;2023-02-24T01:07:04;13.50;49.70
50738;DHT22;36703;48.154;17.126;2023-02-24T01:11:11;13.60;50.20
50738;DHT22;36703;48.154;17.126;2023-02-24T01:15:31;13.60;49.50
50738;DHT22;36703;48.154;17.126;2023-02-24T01:19:33;13.60;49.50
50738;DHT22;36703;48.154;17.126;2023-02-24T01:23:35;13.60;49.50
50738;DHT22;36703;48.154;17.126;2023-02-24T01:27:37;13.50;49.50
50738;DHT22;36703;48.154;17.126;2023-02-24T01:31:42;13.60;49.40
50738;DHT22;36703;48.154;17.126;2023-02-24T01:35:43;13.60;49.40
50738;DHT22;36703;48.154;17.126;2023-02-24T01:39:46;13.60;49.40
50738;DHT22;36703;48.154;17.126;2023-02-24T01:44:01;13.50;49.40
50738;DHT22;36703;48.154;17.126;2023-02-24T01:48:09;13.50;49.50
50738;DHT22;36703;48.154;17.126;2023-02-24T01:52:18;13.60;49.50
50738;DHT22;36703;48.154;17.126;2023-02-24T01:56:25;13.60;49.30
50738;DHT22;36703;48.154;17.126;2023-02-24T02:00:29;13.60;49.40
50738;DHT22;36703;48.154;17.126;2023-02-24T02:04:40;13.50;49.30
50738;DHT22;36703;48.154;17.126;2023-02-24T02:08:44;13.50;49.40
50738;DHT22;36703;48.154;17.126;2023-02-24T02:12:45;13.40;49.40
50738;DHT22;36703;48.154;17.126;2023-02-24T02:17:09;13.50;49.50
50738;DHT22;36703;48.154;17.126;2023-02-24T02:39:25;13.50;49.30
50738;DHT22;36703;48.154;17.126;2023-02-24T02:43:48;13.50;49.30
50738;DHT22;36703;48.154;17.126;2023-02-24T02:52:29;13.40;49.40
50738;DHT22;36703;48.154;17.126;2023-02-24T02:56:48;13.40;49.50
50738;DHT22;36703;48.154;17.126;2023-02-24T03:00:56;13.40;49.60
50738;DHT22;36703;48.154;17.126;2023-02-24T03:05:04;13.40;49.40
50738;DHT22;36703;48.154;17.126;2023-02-24T03:09:15;13.40;49.40
50738;DHT22;36703;48.154;17.126;2023-02-24T03:13:22;13.40;49.40
50738;DHT22;36703;48.154;17.126;2023-02-24T03:17:29;13.40;49.40
50738;DHT22;36703;48.154;17.126;2023-02-24T03:21:38;13.50;49.50
50738;DHT22;36703;48.154;17.126;2023-02-24T03:25:45;13.50;49.30
50738;DHT22;36703;48.154;17.126;2023-02-24T03:30:08;13.50;49.30
50738;DHT22;36703;48.154;17.126;2023-02-24T03:34:29;13.40;49.30
50738;DHT22;36703;48.154;17.126;2023-02-24T03:38:38;13.50;49.30
50738;DHT22;36703;48.154;17.126;2023-02-24T03:42:51;13.40;49.20
50738;DHT22;36703;48.154;17.126;2023-02-24T03:47:00;13.50;49.30
50738;DHT22;36703;48.154;17.126;2023-02-24T03:51:02;13.50;49.20
50738;DHT22;36703;48.154;17.126;2023-02-24T04:00:14;13.40;49.20
50738;DHT22;36703;48.154;17.126;2023-02-24T04:04:45;13.40;49.20
50738;DHT22;36703;48.154;17.126;2023-02-24T04:14:11;13.40;49.30
50738;DHT22;36703;48.154;17.126;2023-02-24T04:18:28;13.30;49.30
50738;DHT22;36703;48.154;17.126;2023-02-24T04:22:33;13.40;49.40
50738;DHT22;36703;48.154;17.126;2023-02-24T04:26:37;13.30;49.40
50738;DHT22;36703;48.154;17.126;2023-02-24T04:30:47;13.30;49.30
50738;DHT22;36703;48.154;17.126;2023-02-24T04:34:52;13.30;49.50
50738;DHT22;36703;48.154;17.126;2023-02-24T04:38:55;13.30;49.60
50738;DHT22;36703;48.154;17.126;2023-02-24T04:42:57;13.40;49.60
50738;DHT22;36703;48.154;17.126;2023-02-24T04:46:59;13.40;49.60
50738;DHT22;36703;48.154;17.126;2023-02-24T04:51:00;13.30;49.60
50738;DHT22;36703;48.154;17.126;2023-02-24T04:55:02;13.30;49.80
50738;DHT22;36703;48.154;17.126;2023-02-24T04:59:10;13.30;49.80
50738;DHT22;36703;48.154;17.126;2023-02-24T05:03:12;13.40;49.80
50738;DHT22;36703;48.154;17.126;2023-02-24T05:07:15;13.40;49.80
50738;DHT22;36703;48.154;17.126;2023-02-24T05:11:17;13.40;49.70
50738;DHT22;36703;48.154;17.126;2023-02-24T05:15:19;13.30;49.80
50738;DHT22;36703;48.154;17.126;2023-02-24T05:19:20;13.30;49.90
50738;DHT22;36703;48.154;17.126;2023-02-24T05:23:42;13.30;49.90
50738;DHT22;36703;48.154;17.126;2023-02-24T05:27:45;13.30;50.00
50738;DHT22;36703;48.154;17.126;2023-02-24T05:31:47;13.30;50.20
50738;DHT22;36703;48.154;17.126;2023-02-24T05:35:49;13.30;50.10
50738;DHT22;36703;48.154;17.126;2023-02-24T05:39:56;13.30;50.10
50738;DHT22;36703;48.154;17.126;2023-02-24T05:44:03;13.30;50.00
50738;DHT22;36703;48.154;17.126;2023-02-24T05:48:08;13.40;50.00
50738;DHT22;36703;48.154;17.126;2023-02-24T05:52:10;13.50;50.00
50738;DHT22;36703;48.154;17.126;2023-02-24T05:56:14;13.50;49.90
50738;DHT22;36703;48.154;17.126;2023-02-24T06:00:18;13.50;49.70
50738;DHT22;36703;48.154;17.126;2023-02-24T06:04:20;13.60;49.80
50738;DHT22;36703;48.154;17.126;2023-02-24T06:08:27;13.70;49.80
50738;DHT22;36703;48.154;17.126;2023-02-24T06:12:36;13.60;49.60
50738;DHT22;36703;48.154;17.126;2023-02-24T06:16:41;13.50;49.70
50738;DHT22;36703;48.154;17.126;2023-02-24T06:20:43;13.60;49.90
50738;DHT22;36703;48.154;17.126;2023-02-24T06:24:53;13.60;49.80
50738;DHT22;36703;48.154;17.126;2023-02-24T06:28:56;13.50;49.90
50738;DHT22;36703;48.154;17.126;2023-02-24T06:32:58;13.50;50.10
50738;DHT22;36703;48.154;17.126;2023-02-24T06:37:00;13.50;50.00
50738;DHT22;36703;48.154;17.126;2023-02-24T06:41:03;13.50;50.10
50738;DHT22;36703;48.154;17.126;2023-02-24T06:45:11;13.50;50.20
50738;DHT22;36703;48.154;17.126;2023-02-24T06:49:13;13.50;50.20
50738;DHT22;36703;48.154;17.126;2023-02-24T06:53:15;13.50;50.30
50738;DHT22;36703;48.154;17.126;2023-02-24T06:57:17;13.50;50.30
50738;DHT22;36703;48.154;17.126;2023-02-24T07:01:22;13.50;50.40
50738;DHT22;36703;48.154;17.126;2023-02-24T07:05:25;13.50;50.40
50738;DHT22;36703;48.154;17.126;2023-02-24T07:09:28;13.50;50.50
50738;DHT22;36703;48.154;17.126;2023-02-24T07:13:31;13.40;50.50
50738;DHT22;36703;48.154;17.126;2023-02-24T07:17:33;13.50;50.70
50738;DHT22;36703;48.154;17.126;2023-02-24T07:21:37;13.60;50.70
50738;DHT22;36703;48.154;17.126;2023-02-24T07:25:41;13.70;50.60
50738;DHT22;36703;48.154;17.126;2023-02-24T07:29:46;13.70;50.50
50738;DHT22;36703;48.154;17.126;2023-02-24T07:33:53;13.80;50.40
50738;DHT22;36703;48.154;17.126;2023-02-24T07:37:57;13.70;50.30
50738;DHT22;36703;48.154;17.126;2023-02-24T07:42:02;13.80;50.40
50738;DHT22;36703;48.154;17.126;2023-02-24T07:46:26;14.00;50.30
50738;DHT22;36703;48.154;17.126;2023-02-24T07:50:29;14.20;50.10
50738;DHT22;36703;48.154;17.126;2023-02-24T07:54:32;14.30;49.90
50738;DHT22;36703;48.154;17.126;2023-02-24T07:58:34;14.30;49.90
50738;DHT22;36703;48.154;17.126;2023-02-24T08:02:36;14.40;49.90
50738;DHT22;36703;48.154;17.126;2023-02-24T08:06:40;14.50;50.30
50738;DHT22;36703;48.154;17.126;2023-02-24T08:10:45;14.70;49.60
50738;DHT22;36703;48.154;17.126;2023-02-24T08:14:49;14.70;49.50
50738;DHT22;36703;48.154;17.126;2023-02-24T08:18:52;14.80;49.30
50738;DHT22;36703;48.154;17.126;2023-02-24T08:22:57;14.80;49.30
50738;DHT22;36703;48.154;17.126;2023-02-24T08:26:59;14.90;49.40
50738;DHT22;36703;48.154;17.126;2023-02-24T08:31:07;15.10;49.20
50738;DHT22;36703;48.154;17.126;2023-02-24T08:35:14;15.20;49.60
50738;DHT22;36703;48.154;17.126;2023-02-24T08:39:17;15.30;49.00
50738;DHT22;36703;48.154;17.126;2023-02-24T08:43:28;15.40;48.90
50738;DHT22;36703;48.154;17.126;2023-02-24T08:47:30;15.50;49.00
50738;DHT22;36703;48.154;17.126;2023-02-24T08:51:37;15.70;48.90
50738;DHT22;36703;48.154;17.126;2023-02-24T08:55:49;15.80;48.80
50738;DHT22;36703;48.154;17.126;2023-02-24T08:59:52;15.80;48.60
50738;DHT22;36703;48.154;17.126;2023-02-24T09:03:59;15.80;48.60
50738;DHT22;36703;48.154;17.126;2023-02-24T09:08:01;15.80;48.70
50738;DHT22;36703;48.154;17.126;2023-02-24T09:12:04;15.90;48.90
50738;DHT22;36703;48.154;17.126;2023-02-24T09:16:06;15.80;48.70
50738;DHT22;36703;48.154;17.126;2023-02-24T09:20:19;15.90;48.70
50738;DHT22;36703;48.154;17.126;2023-02-24T09:24:27;16.00;49.20
50738;DHT22;36703;48.154;17.126;2023-02-24T09:28:28;16.10;48.50
50738;DHT22;36703;48.154;17.126;2023-02-24T09:32:32;16.10;48.40
50738;DHT22;36703;48.154;17.126;2023-02-24T09:36:35;16.30;48.30
50738;DHT22;36703;48.154;17.126;2023-02-24T09:40:47;16.30;48.20
50738;DHT22;36703;48.154;17.126;2023-02-24T09:44:51;16.40;48.30
50738;DHT22;36703;48.154;17.126;2023-02-24T09:49:04;16.40;48.80
50738;DHT22;36703;48.154;17.126;2023-02-24T09:53:14;16.50;48.30
50738;DHT22;36703;48.154;17.126;2023-02-24T09:57:22;16.60;48.10
50738;DHT22;36703;48.154;17.126;2023-02-24T10:01:38;16.60;48.10
50738;DHT22;36703;48.154;17.126;2023-02-24T10:06:22;16.60;48.00
50738;DHT22;36703;48.154;17.126;2023-02-24T10:10:30;16.70;48.10
50738;DHT22;36703;48.154;17.126;2023-02-24T10:19:25;16.60;48.50
50738;DHT22;36703;48.154;17.126;2023-02-24T10:23:49;16.90;48.40
50738;DHT22;36703;48.154;17.126;2023-02-24T10:28:23;17.00;48.10
50738;DHT22;36703;48.154;17.126;2023-02-24T10:32:51;17.10;48.10
50738;DHT22;36703;48.154;17.126;2023-02-24T10:37:04;17.40;48.30
50738;DHT22;36703;48.154;17.126;2023-02-24T10:41:13;18.10;47.70
50738;DHT22;36703;48.154;17.126;2023-02-24T10:49:24;19.50;58.90
50738;DHT22;36703;48.154;17.126;2023-02-24T10:53:27;20.10;45.60
50738;DHT22;36703;48.154;17.126;2023-02-24T10:57:44;20.50;59.80
50738;DHT22;36703;48.154;17.126;2023-02-24T11:02:07;20.50;57.50
50738;DHT22;36703;48.154;17.126;2023-02-24T11:41:46;21.00;49.50
50738;DHT22;36703;48.154;17.126;2023-02-24T11:46:01;22.90;40.60
50738;DHT22;36703;48.154;17.126;2023-02-24T11:54:47;22.40;40.90
50738;DHT22;36703;48.154;17.126;2023-02-24T11:59:06;21.90;41.40
50738;DHT22;36703;48.154;17.126;2023-02-24T12:03:38;21.40;42.50
50738;DHT22;36703;48.154;17.126;2023-02-24T12:07:53;21.00;42.40
50738;DHT22;36703;48.154;17.126;2023-02-24T12:12:11;20.60;42.80
50738;DHT22;36703;48.154;17.126;2023-02-24T12:16:23;20.40;43.10
50738;DHT22;36703;48.154;17.126;2023-02-24T12:20:51;20.20;43.20
50738;DHT22;36703;48.154;17.126;2023-02-24T12:24:58;20.10;43.40
50738;DHT22;36703;48.154;17.126;2023-02-24T12:34:04;19.80;43.60
50738;DHT22;36703;48.154;17.126;2023-02-24T12:47:28;19.50;44.20
50738;DHT22;36703;48.154;17.126;2023-02-24T12:51:56;19.40;44.30
50738;DHT22;36703;48.154;17.126;2023-02-24T12:56:18;19.30;44.40
50738;DHT22;36703;48.154;17.126;2023-02-24T13:05:04;19.30;44.40
50738;DHT22;36703;48.154;17.126;2023-02-24T13:09:45;19.30;44.30
50738;DHT22;36703;48.154;17.126;2023-02-24T13:18:31;19.30;44.50
50738;DHT22;36703;48.154;17.126;2023-02-24T13:22:40;19.40;44.40
50738;DHT22;36703;48.154;17.126;2023-02-24T13:26:43;19.40;44.30
50738;DHT22;36703;48.154;17.126;2023-02-24T13:30:45;19.50;44.90
50738;DHT22;36703;48.154;17.126;2023-02-24T13:34:47;19.40;44.20
50738;DHT22;36703;48.154;17.126;2023-02-24T13:39:05;19.50;44.20
50738;DHT22;36703;48.154;17.126;2023-02-24T13:43:23;19.70;43.80
50738;DHT22;36703;48.154;17.126;2023-02-24T13:51:57;19.80;43.00
50738;DHT22;36703;48.154;17.126;2023-02-24T13:56:23;19.60;43.00
50738;DHT22;36703;48.154;17.126;2023-02-24T14:05:24;19.10;43.30
50738;DHT22;36703;48.154;17.126;2023-02-24T14:09:32;19.00;44.00
50738;DHT22;36703;48.154;17.126;2023-02-24T14:13:37;18.80;43.50
50738;DHT22;36703;48.154;17.126;2023-02-24T14:17:40;18.80;43.50
50738;DHT22;36703;48.154;17.126;2023-02-24T14:21:50;18.80;43.50
50738;DHT22;36703;48.154;17.126;2023-02-24T14:26:03;18.90;43.50
50738;DHT22;36703;48.154;17.126;2023-02-24T14:30:07;18.90;43.30
50738;DHT22;36703;48.154;17.126;2023-02-24T14:34:27;18.90;43.20
50738;DHT22;36703;48.154;17.126;2023-02-24T14:38:38;19.00;43.10
50738;DHT22;36703;48.154;17.126;2023-02-24T14:42:48;19.00;43.10
50738;DHT22;36703;48.154;17.126;2023-02-24T14:46:56;19.00;43.20
50738;DHT22;36703;48.154;17.126;2023-02-24T14:51:06;18.90;43.90
50738;DHT22;36703;48.154;17.126;2023-02-24T14:55:18;18.80;43.40
50738;DHT22;36703;48.154;17.126;2023-02-24T14:59:32;18.70;43.40
50738;DHT22;36703;48.154;17.126;2023-02-24T15:03:43;18.70;43.50
50738;DHT22;36703;48.154;17.126;2023-02-24T15:07:46;18.70;43.70
50738;DHT22;36703;48.154;17.126;2023-02-24T15:11:49;18.60;43.70
50738;DHT22;36703;48.154;17.126;2023-02-24T15:15:53;18.50;43.80
50738;DHT22;36703;48.154;17.126;2023-02-24T15:19:54;18.50;43.90
50738;DHT22;36703;48.154;17.126;2023-02-24T15:24:32;18.50;44.00
50738;DHT22;36703;48.154;17.126;2023-02-24T15:28:36;18.50;44.00
50738;DHT22;36703;48.154;17.126;2023-02-24T15:32:38;18.50;43.90
50738;DHT22;36703;48.154;17.126;2023-02-24T15:36:39;18.50;43.80
50738;DHT22;36703;48.154;17.126;2023-02-24T15:40:51;18.50;43.80
50738;DHT22;36703;48.154;17.126;2023-02-24T15:45:03;18.60;43.90
50738;DHT22;36703;48.154;17.126;2023-02-24T15:49:06;18.40;43.70
50738;DHT22;36703;48.154;17.126;2023-02-24T15:53:10;18.40;43.70
50738;DHT22;36703;48.154;17.126;2023-02-24T15:57:15;18.40;43.70
50738;DHT22;36703;48.154;17.126;2023-02-24T16:01:18;18.40;43.70
50738;DHT22;36703;48.154;17.126;2023-02-24T16:05:20;18.40;43.70
50738;DHT22;36703;48.154;17.126;2023-02-24T16:09:34;18.30;43.70
50738;DHT22;36703;48.154;17.126;2023-02-24T16:13:37;18.10;43.70
50738;DHT22;36703;48.154;17.126;2023-02-24T16:17:40;18.50;43.80
50738;DHT22;36703;48.154;17.126;2023-02-24T16:21:42;18.30;43.80
50738;DHT22;36703;48.154;17.126;2023-02-24T16:25:44;18.20;43.80
50738;DHT22;36703;48.154;17.126;2023-02-24T16:29:46;18.20;43.80
50738;DHT22;36703;48.154;17.126;2023-02-24T16:33:49;18.20;44.00
50738;DHT22;36703;48.154;17.126;2023-02-24T16:37:52;18.20;44.00
50738;DHT22;36703;48.154;17.126;2023-02-24T16:41:53;18.20;44.00
50738;DHT22;36703;48.154;17.126;2023-02-24T16:46:01;18.10;44.00
50738;DHT22;36703;48.154;17.126;2023-02-24T16:50:04;18.10;44.00
50738;DHT22;36703;48.154;17.126;2023-02-24T16:54:06;18.10;44.10
50738;DHT22;36703;48.154;17.126;2023-02-24T16:58:09;18.00;44.20
50738;DHT22;36703;48.154;17.126;2023-02-24T17:02:31;18.00;44.40
50738;DHT22;36703;48.154;17.126;2023-02-24T17:06:33;18.00;44.70
50738;DHT22;36703;48.154;17.126;2023-02-24T17:10:35;18.00;44.70
50738;DHT22;36703;48.154;17.126;2023-02-24T17:14:39;17.70;44.70
50738;DHT22;36703;48.154;17.126;2023-02-24T17:18:40;17.80;44.90
50738;DHT22;36703;48.154;17.126;2023-02-24T17:22:43;17.80;45.10
50738;DHT22;36703;48.154;17.126;2023-02-24T17:26:45;17.70;45.20
50738;DHT22;36703;48.154;17.126;2023-02-24T17:30:47;17.70;45.30
50738;DHT22;36703;48.154;17.126;2023-02-24T17:34:48;17.70;45.50
50738;DHT22;36703;48.154;17.126;2023-02-24T17:38:50;17.60;45.60
50738;DHT22;36703;48.154;17.126;2023-02-24T17:42:52;17.70;46.00
50738;DHT22;36703;48.154;17.126;2023-02-24T17:46:53;17.40;57.50
50738;DHT22;36703;48.154;17.126;2023-02-24T17:50:55;17.30;56.30
50738;DHT22;36703;48.154;17.126;2023-02-24T17:54:57;17.20;51.60
50738;DHT22;36703;48.154;17.126;2023-02-24T17:58:59;17.10;52.40
50738;DHT22;36703;48.154;17.126;2023-02-24T18:03:01;17.20;53.30
50738;DHT22;36703;48.154;17.126;2023-02-24T18:07:02;17.20;53.80
50738;DHT22;36703;48.154;17.126;2023-02-24T18:11:05;17.20;54.40
50738;DHT22;36703;48.154;17.126;2023-02-24T18:15:07;17.10;54.60
50738;DHT22;36703;48.154;17.126;2023-02-24T18:19:09;17.10;55.10
50738;DHT22;36703;48.154;17.126;2023-02-24T18:23:11;17.20;54.80
50738;DHT22;36703;48.154;17.126;2023-02-24T18:27:13;17.30;54.80
50738;DHT22;36703;48.154;17.126;2023-02-24T18:31:17;17.20;55.40
50738;DHT22;36703;48.154;17.126;2023-02-24T18:35:20;17.30;55.40
50738;DHT22;36703;48.154;17.126;2023-02-24T18:39:22;17.80;55.90
50738;DHT22;36703;48.154;17.126;2023-02-24T18:43:24;17.40;55.90
50738;DHT22;36703;48.154;17.126;2023-02-24T18:47:26;17.40;55.80
50738;DHT22;36703;48.154;17.126;2023-02-24T18:51:27;17.40;55.20
50738;DHT22;36703;48.154;17.126;2023-02-24T18:55:34;17.40;55.60
50738;DHT22;36703;48.154;17.126;2023-02-24T18:59:36;17.40;54.80
50738;DHT22;36703;48.154;17.126;2023-02-24T19:03:37;17.50;55.10
50738;DHT22;36703;48.154;17.126;2023-02-24T19:07:40;17.40;55.60
50738;DHT22;36703;48.154;17.126;2023-02-24T19:11:42;17.40;55.40
50738;DHT22;36703;48.154;17.126;2023-02-24T19:15:44;17.30;56.00
50738;DHT22;36703;48.154;17.126;2023-02-24T19:19:46;17.20;56.10
50738;DHT22;36703;48.154;17.126;2023-02-24T19:23:47;17.20;56.00
50738;DHT22;36703;48.154;17.126;2023-02-24T19:27:52;17.10;56.20
50738;DHT22;36703;48.154;17.126;2023-02-24T19:31:53;17.00;57.10
50738;DHT22;36703;48.154;17.126;2023-02-24T19:35:57;17.00;57.80
50738;DHT22;36703;48.154;17.126;2023-02-24T19:40:00;17.10;56.60
50738;DHT22;36703;48.154;17.126;2023-02-24T19:44:01;17.10;55.80
50738;DHT22;36703;48.154;17.126;2023-02-24T19:48:03;17.10;55.90
50738;DHT22;36703;48.154;17.126;2023-02-24T19:52:05;17.10;56.10
50738;DHT22;36703;48.154;17.126;2023-02-24T19:56:06;17.10;57.90
50738;DHT22;36703;48.154;17.126;2023-02-24T20:00:08;17.00;57.90
50738;DHT22;36703;48.154;17.126;2023-02-24T20:04:14;17.00;58.60
50738;DHT22;36703;48.154;17.126;2023-02-24T20:08:16;16.90;58.80
50738;DHT22;36703;48.154;17.126;2023-02-24T20:12:17;16.90;58.20
50738;DHT22;36703;48.154;17.126;2023-02-24T20:16:20;16.70;56.00
50738;DHT22;36703;48.154;17.126;2023-02-24T20:20:24;16.70;56.40
50738;DHT22;36703;48.154;17.126;2023-02-24T20:24:26;16.60;53.90
50738;DHT22;36703;48.154;17.126;2023-02-24T20:28:28;16.70;52.90
50738;DHT22;36703;48.154;17.126;2023-02-24T20:32:30;16.80;52.40
50738;DHT22;36703;48.154;17.126;2023-02-24T20:36:32;16.80;52.70
50738;DHT22;36703;48.154;17.126;2023-02-24T20:40:33;16.80;51.90
50738;DHT22;36703;48.154;17.126;2023-02-24T20:44:37;16.70;52.10
50738;DHT22;36703;48.154;17.126;2023-02-24T20:48:38;16.70;51.70
50738;DHT22;36703;48.154;17.126;2023-02-24T20:52:40;16.70;51.10
50738;DHT22;36703;48.154;17.126;2023-02-24T20:56:43;16.60;51.70
50738;DHT22;36703;48.154;17.126;2023-02-24T21:00:45;16.90;51.80
50738;DHT22;36703;48.154;17.126;2023-02-24T21:04:47;17.10;52.10
50738;DHT22;36703;48.154;17.126;2023-02-24T21:08:48;16.60;51.70
50738;DHT22;36703;48.154;17.126;2023-02-24T21:12:51;16.60;52.20
50738;DHT22;36703;48.154;17.126;2023-02-24T21:16:52;16.50;56.20
50738;DHT22;36703;48.154;17.126;2023-02-24T21:24:57;16.20;71.90
50738;DHT22;36703;48.154;17.126;2023-02-24T21:28:58;16.40;61.80
50738;DHT22;36703;48.154;17.126;2023-02-24T21:33:00;16.10;57.30
50738;DHT22;36703;48.154;17.126;2023-02-24T21:37:02;16.00;58.70
50738;DHT22;36703;48.154;17.126;2023-02-24T21:41:08;15.90;55.40
50738;DHT22;36703;48.154;17.126;2023-02-24T21:45:13;16.30;57.90
50738;DHT22;36703;48.154;17.126;2023-02-24T21:49:15;15.70;64.50
50738;DHT22;36703;48.154;17.126;2023-02-24T21:53:18;15.90;66.70
50738;DHT22;36703;48.154;17.126;2023-02-24T21:57:19;15.70;65.00
50738;DHT22;36703;48.154;17.126;2023-02-24T22:01:24;15.70;62.00
50738;DHT22;36703;48.154;17.126;2023-02-24T22:05:27;15.40;52.60
50738;DHT22;36703;48.154;17.126;2023-02-24T22:09:29;15.40;64.80
50738;DHT22;36703;48.154;17.126;2023-02-24T22:13:31;15.60;63.30
50738;DHT22;36703;48.154;17.126;2023-02-24T22:17:36;15.50;61.10
50738;DHT22;36703;48.154;17.126;2023-02-24T22:21:39;15.40;58.60
50738;DHT22;36703;48.154;17.126;2023-02-24T22:25:42;15.30;58.40
50738;DHT22;36703;48.154;17.126;2023-02-24T22:29:45;15.40;58.30
50738;DHT22;36703;48.154;17.126;2023-02-24T22:33:48;15.50;56.50
50738;DHT22;36703;48.154;17.126;2023-02-24T22:37:50;15.40;56.90
50738;DHT22;36703;48.154;17.126;2023-02-24T22:41:52;15.50;57.30
50738;DHT22;36703;48.154;17.126;2023-02-24T22:46:01;15.30;56.60
50738;DHT22;36703;48.154;17.126;2023-02-24T22:50:05;15.30;62.20
50738;DHT22;36703;48.154;17.126;2023-02-24T22:54:07;15.30;60.90
50738;DHT22;36703;48.154;17.126;2023-02-24T22:58:08;15.50;61.10
50738;DHT22;36703;48.154;17.126;2023-02-24T23:02:10;15.80;60.90
50738;DHT22;36703;48.154;17.126;2023-02-24T23:06:15;15.50;60.00
50738;DHT22;36703;48.154;17.126;2023-02-24T23:10:18;15.50;60.20
50738;DHT22;36703;48.154;17.126;2023-02-24T23:14:20;15.20;61.00
50738;DHT22;36703;48.154;17.126;2023-02-24T23:18:22;15.20;59.70
50738;DHT22;36703;48.154;17.126;2023-02-24T23:22:23;15.30;59.00
50738;DHT22;36703;48.154;17.126;2023-02-24T23:26:32;15.30;58.70
50738;DHT22;36703;48.154;17.126;2023-02-24T23:30:39;15.20;58.40
50738;DHT22;36703;48.154;17.126;2023-02-24T23:34:41;15.10;58.20
50738;DHT22;36703;48.154;17.126;2023-02-24T23:38:44;15.10;58.10
50738;DHT22;36703;48.154;17.126;2023-02-24T23:42:46;15.10;57.20
50738;DHT22;36703;48.154;17.126;2023-02-24T23:46:47;15.10;56.90
50738;DHT22;36703;48.154;17.126;2023-02-24T23:50:49;15.20;56.70
50738;DHT22;36703;48.154;17.126;2023-02-24T23:54:55;15.30;56.30
50738;DHT22;36703;48.154;17.126;2023-02-24T23:58:57;15.40;56.40
